Terminal Aerodrome Forecast
Issued by NWS Newport/Morehead City, NC

Home | Current Version | Previous Version | Text Only | Print | Product List | Glossary Off
Versions: 1 2 3 4 5 6 7 8 9 10 11 12 13 14 15

785
FTUS42 KMHX 241742
TAFEWN
TAF
KEWN 241742Z 2418/2518 11006KT P6SM SCT025
     FM250500 00000KT 4SM BR SKC
     FM250700 00000KT 1SM BR BKN005
     FM251400 VRB03KT 5SM BR SCT250
     FM251600 20007KT P6SM SCT100=

USA.gov is the U.S. government's official web portal to all federal, state and local government web resources and services.